FBU1452 SKCL-SEQM
Flight info
| Callsign | FBU1452 |
|---|---|
| Flight time | N/A |
| Altitude | 24000 |
| Route | CLO1D CLO R567 PPN W48 MER G675 IPI/N0419F230 G675 QIT DCT |
| Aircraft | A359/M-V/N |
Departure
| Time | 2026-04-29 06:50 |
|---|---|
| Airport | Alfonso Bonilla Aragon International Airport (SKCL) |
Arrival
| Time | N/A |
|---|---|
| Airport | Mariscal Sucre International Airport (SEQM) |
| Time | Latitude | Longitude | Altitude | Speed | Heading |
|---|---|---|---|---|---|
| 2026-04-29 06:11 | 3.53739 | -76.38622 | 3168 ft | 0 kts | 229° |
| 2026-04-29 06:39 | 3.53743 | -76.38618 | 3168 ft | 3 kts | 229° |
| 2026-04-29 06:40 | 3.53756 | -76.38603 | 3173 ft | 3 kts | 207° |
| 2026-04-29 06:40 | 3.53775 | -76.38598 | 3170 ft | 3 kts | 166° |
| 2026-04-29 06:40 | 3.53788 | -76.38602 | 3171 ft | 0 kts | 137° |
| 2026-04-29 06:44 | 3.53787 | -76.38602 | 3171 ft | 1 kts | 138° |
| 2026-04-29 06:44 | 3.53754 | -76.38579 | 3173 ft | 10 kts | 147° |
| 2026-04-29 06:44 | 3.53695 | -76.38536 | 3171 ft | 11 kts | 139° |
| 2026-04-29 06:45 | 3.53622 | -76.38494 | 3171 ft | 13 kts | 156° |
| 2026-04-29 06:45 | 3.53528 | -76.38471 | 3171 ft | 13 kts | 184° |
| 2026-04-29 06:45 | 3.53434 | -76.38488 | 3168 ft | 15 kts | 191° |
| 2026-04-29 06:45 | 3.53328 | -76.38507 | 3168 ft | 16 kts | 189° |
| 2026-04-29 06:46 | 3.53208 | -76.38529 | 3166 ft | 18 kts | 190° |
| 2026-04-29 06:46 | 3.53082 | -76.38553 | 3166 ft | 20 kts | 188° |
| 2026-04-29 06:46 | 3.53070 | -76.38555 | 3166 ft | 20 kts | 188° |
| 2026-04-29 06:47 | 3.52989 | -76.38536 | 3165 ft | 9 kts | 126° |
| 2026-04-29 06:47 | 3.52979 | -76.38483 | 3165 ft | 7 kts | 77° |
| 2026-04-29 06:47 | 3.52980 | -76.38480 | 3165 ft | 0 kts | 77° |
| 2026-04-29 06:48 | 3.52987 | -76.38456 | 3165 ft | 8 kts | 72° |
| 2026-04-29 06:49 | 3.53023 | -76.38410 | 3164 ft | 9 kts | 37° |
| 2026-04-29 06:49 | 3.53088 | -76.38382 | 3163 ft | 17 kts | 13° |
| 2026-04-29 06:49 | 3.53453 | -76.38321 | 3167 ft | 99 kts | 9° |
| 2026-04-29 06:49 | 3.54431 | -76.38144 | 3178 ft | 183 kts | 9° |
| 2026-04-29 06:50 | 3.55845 | -76.37839 | 3649 ft | 219 kts | 14° |
| 2026-04-29 06:50 | 3.56184 | -76.37749 | 3847 ft | 217 kts | 15° |
| 2026-04-29 06:50 | 3.56515 | -76.37667 | 4087 ft | 213 kts | 13° |
| 2026-04-29 06:51 | 3.57947 | -76.37445 | 4987 ft | 210 kts | 7° |
| 2026-04-29 06:51 | 3.59463 | -76.37221 | 5405 ft | 230 kts | 9° |
| 2026-04-29 06:51 | 3.61093 | -76.36949 | 6022 ft | 242 kts | 9° |
| 2026-04-29 06:51 | 3.62766 | -76.36658 | 6839 ft | 246 kts | 9° |
| 2026-04-29 06:52 | 3.64462 | -76.36355 | 7666 ft | 249 kts | 11° |
| 2026-04-29 06:52 | 3.66117 | -76.35821 | 8556 ft | 252 kts | 27° |
| 2026-04-29 06:52 | 3.67506 | -76.34747 | 9436 ft | 256 kts | 49° |
| 2026-04-29 06:52 | 3.68384 | -76.33201 | 10313 ft | 258 kts | 72° |
| 2026-04-29 06:53 | 3.68589 | -76.31421 | 11154 ft | 259 kts | 95° |
| 2026-04-29 06:53 | 3.68090 | -76.29689 | 11989 ft | 262 kts | 117° |
| 2026-04-29 06:53 | 3.66962 | -76.28285 | 12817 ft | 266 kts | 140° |
| 2026-04-29 06:53 | 3.65332 | -76.27409 | 13648 ft | 270 kts | 163° |
| 2026-04-29 06:54 | 3.63443 | -76.27254 | 14397 ft | 277 kts | 186° |
| 2026-04-29 06:54 | 3.61606 | -76.27873 | 15129 ft | 282 kts | 206° |
| 2026-04-29 06:54 | 3.59887 | -76.28862 | 15891 ft | 286 kts | 210° |